sensor_id;sensor_type;location;lat;lon;timestamp;temperature;humidity
14473;DHT22;7322;50.872;4.386;2023-07-02T00:00:13;24.50;99.90
14473;DHT22;7322;50.872;4.386;2023-07-02T00:02:41;24.50;99.90
14473;DHT22;7322;50.872;4.386;2023-07-02T00:05:08;24.50;99.90
14473;DHT22;7322;50.872;4.386;2023-07-02T00:07:35;24.40;99.90
14473;DHT22;7322;50.872;4.386;2023-07-02T00:10:03;24.40;99.90
14473;DHT22;7322;50.872;4.386;2023-07-02T00:12:30;24.50;99.90
14473;DHT22;7322;50.872;4.386;2023-07-02T00:14:57;24.50;99.90
14473;DHT22;7322;50.872;4.386;2023-07-02T00:17:24;24.50;99.90
14473;DHT22;7322;50.872;4.386;2023-07-02T00:19:53;24.50;99.90
14473;DHT22;7322;50.872;4.386;2023-07-02T00:22:20;24.50;99.90
14473;DHT22;7322;50.872;4.386;2023-07-02T00:24:47;24.40;99.90
14473;DHT22;7322;50.872;4.386;2023-07-02T00:27:16;24.30;99.90
14473;DHT22;7322;50.872;4.386;2023-07-02T00:29:43;24.30;99.90
14473;DHT22;7322;50.872;4.386;2023-07-02T00:32:10;24.30;99.90
14473;DHT22;7322;50.872;4.386;2023-07-02T00:34:36;24.20;99.90
14473;DHT22;7322;50.872;4.386;2023-07-02T00:37:05;24.20;99.90
14473;DHT22;7322;50.872;4.386;2023-07-02T00:39:33;24.20;99.90
14473;DHT22;7322;50.872;4.386;2023-07-02T00:42:00;24.20;99.90
14473;DHT22;7322;50.872;4.386;2023-07-02T00:44:29;24.20;99.90
14473;DHT22;7322;50.872;4.386;2023-07-02T00:46:56;24.20;99.90
14473;DHT22;7322;50.872;4.386;2023-07-02T00:49:24;24.20;99.90
14473;DHT22;7322;50.872;4.386;2023-07-02T00:51:51;24.20;99.90
14473;DHT22;7322;50.872;4.386;2023-07-02T00:54:19;24.20;99.90
14473;DHT22;7322;50.872;4.386;2023-07-02T00:56:46;24.20;99.90
14473;DHT22;7322;50.872;4.386;2023-07-02T00:59:13;24.20;99.90
14473;DHT22;7322;50.872;4.386;2023-07-02T01:01:40;24.30;99.90
14473;DHT22;7322;50.872;4.386;2023-07-02T01:04:07;24.20;99.90
14473;DHT22;7322;50.872;4.386;2023-07-02T01:06:36;24.20;99.90
14473;DHT22;7322;50.872;4.386;2023-07-02T01:09:06;24.10;99.90
14473;DHT22;7322;50.872;4.386;2023-07-02T01:11:38;24.10;99.90
14473;DHT22;7322;50.872;4.386;2023-07-02T01:14:11;24.00;99.90
14473;DHT22;7322;50.872;4.386;2023-07-02T01:16:42;24.00;99.90
14473;DHT22;7322;50.872;4.386;2023-07-02T01:19:13;24.00;99.90
14473;DHT22;7322;50.872;4.386;2023-07-02T01:21:46;24.10;99.90
14473;DHT22;7322;50.872;4.386;2023-07-02T01:24:14;24.10;99.90
14473;DHT22;7322;50.872;4.386;2023-07-02T01:26:41;24.20;99.90
14473;DHT22;7322;50.872;4.386;2023-07-02T01:29:15;24.20;99.90
14473;DHT22;7322;50.872;4.386;2023-07-02T01:31:42;24.30;99.90
14473;DHT22;7322;50.872;4.386;2023-07-02T01:34:10;24.20;99.90
14473;DHT22;7322;50.872;4.386;2023-07-02T01:36:37;24.20;99.90
14473;DHT22;7322;50.872;4.386;2023-07-02T01:39:05;24.10;99.90
14473;DHT22;7322;50.872;4.386;2023-07-02T01:41:36;24.20;99.90
14473;DHT22;7322;50.872;4.386;2023-07-02T01:44:04;24.20;99.90
14473;DHT22;7322;50.872;4.386;2023-07-02T01:46:31;24.20;99.90
14473;DHT22;7322;50.872;4.386;2023-07-02T01:48:58;24.20;99.90
14473;DHT22;7322;50.872;4.386;2023-07-02T01:51:25;24.30;99.90
14473;DHT22;7322;50.872;4.386;2023-07-02T01:53:52;24.30;99.90
14473;DHT22;7322;50.872;4.386;2023-07-02T01:56:20;24.30;99.90
14473;DHT22;7322;50.872;4.386;2023-07-02T01:58:47;24.40;99.90
14473;DHT22;7322;50.872;4.386;2023-07-02T02:01:14;24.50;99.90
14473;DHT22;7322;50.872;4.386;2023-07-02T02:03:41;24.40;99.90
14473;DHT22;7322;50.872;4.386;2023-07-02T02:06:08;24.30;99.90
14473;DHT22;7322;50.872;4.386;2023-07-02T02:08:35;24.30;99.90
14473;DHT22;7322;50.872;4.386;2023-07-02T02:11:02;24.30;99.90
14473;DHT22;7322;50.872;4.386;2023-07-02T02:13:30;24.30;99.90
14473;DHT22;7322;50.872;4.386;2023-07-02T02:15:57;24.30;99.90
14473;DHT22;7322;50.872;4.386;2023-07-02T02:18:24;24.20;99.90
14473;DHT22;7322;50.872;4.386;2023-07-02T02:20:51;24.20;99.90
14473;DHT22;7322;50.872;4.386;2023-07-02T02:23:18;24.20;99.90
14473;DHT22;7322;50.872;4.386;2023-07-02T02:25:45;24.10;99.90
14473;DHT22;7322;50.872;4.386;2023-07-02T02:28:12;24.20;99.90
14473;DHT22;7322;50.872;4.386;2023-07-02T02:30:41;24.20;99.90
14473;DHT22;7322;50.872;4.386;2023-07-02T02:33:08;24.30;99.90
14473;DHT22;7322;50.872;4.386;2023-07-02T02:35:34;24.30;99.90
14473;DHT22;7322;50.872;4.386;2023-07-02T02:38:03;24.20;99.90
14473;DHT22;7322;50.872;4.386;2023-07-02T02:40:30;24.20;99.90
14473;DHT22;7322;50.872;4.386;2023-07-02T02:42:57;24.30;99.90
14473;DHT22;7322;50.872;4.386;2023-07-02T02:45:24;24.40;99.90
14473;DHT22;7322;50.872;4.386;2023-07-02T02:47:52;24.40;99.90
14473;DHT22;7322;50.872;4.386;2023-07-02T02:50:20;24.20;99.90
14473;DHT22;7322;50.872;4.386;2023-07-02T02:52:47;24.30;99.90
14473;DHT22;7322;50.872;4.386;2023-07-02T02:55:14;24.40;99.90
14473;DHT22;7322;50.872;4.386;2023-07-02T02:57:41;24.40;99.90
14473;DHT22;7322;50.872;4.386;2023-07-02T03:00:09;24.30;99.90
14473;DHT22;7322;50.872;4.386;2023-07-02T03:02:37;24.20;99.90
14473;DHT22;7322;50.872;4.386;2023-07-02T03:05:06;24.10;99.90
14473;DHT22;7322;50.872;4.386;2023-07-02T03:07:34;24.00;99.90
14473;DHT22;7322;50.872;4.386;2023-07-02T03:10:01;23.90;99.90
14473;DHT22;7322;50.872;4.386;2023-07-02T03:12:28;23.80;99.90
14473;DHT22;7322;50.872;4.386;2023-07-02T03:14:55;23.80;99.90
14473;DHT22;7322;50.872;4.386;2023-07-02T03:17:22;23.70;99.90
14473;DHT22;7322;50.872;4.386;2023-07-02T03:19:50;23.60;99.90
14473;DHT22;7322;50.872;4.386;2023-07-02T03:22:18;23.60;99.90
14473;DHT22;7322;50.872;4.386;2023-07-02T03:24:45;23.60;99.90
14473;DHT22;7322;50.872;4.386;2023-07-02T03:27:12;23.60;99.90
14473;DHT22;7322;50.872;4.386;2023-07-02T03:29:39;23.60;99.90
14473;DHT22;7322;50.872;4.386;2023-07-02T03:32:06;23.60;99.90
14473;DHT22;7322;50.872;4.386;2023-07-02T03:34:33;23.60;99.90
14473;DHT22;7322;50.872;4.386;2023-07-02T03:37:00;23.60;99.90
14473;DHT22;7322;50.872;4.386;2023-07-02T03:39:29;23.60;99.90
14473;DHT22;7322;50.872;4.386;2023-07-02T03:41:56;23.60;99.90
14473;DHT22;7322;50.872;4.386;2023-07-02T03:44:23;23.60;99.90
14473;DHT22;7322;50.872;4.386;2023-07-02T03:46:50;23.60;99.90
14473;DHT22;7322;50.872;4.386;2023-07-02T03:49:17;23.60;99.90
14473;DHT22;7322;50.872;4.386;2023-07-02T03:51:44;23.50;99.90
14473;DHT22;7322;50.872;4.386;2023-07-02T03:54:11;23.50;99.90
14473;DHT22;7322;50.872;4.386;2023-07-02T03:56:39;23.50;99.90
14473;DHT22;7322;50.872;4.386;2023-07-02T03:59:06;23.50;99.90
14473;DHT22;7322;50.872;4.386;2023-07-02T04:01:33;23.50;99.90
14473;DHT22;7322;50.872;4.386;2023-07-02T04:04:00;23.40;99.90
14473;DHT22;7322;50.872;4.386;2023-07-02T04:06:27;23.50;99.90
14473;DHT22;7322;50.872;4.386;2023-07-02T04:08:55;23.50;99.90
14473;DHT22;7322;50.872;4.386;2023-07-02T04:11:22;23.50;99.90
14473;DHT22;7322;50.872;4.386;2023-07-02T04:13:50;23.50;99.90
14473;DHT22;7322;50.872;4.386;2023-07-02T04:16:17;23.50;99.90
14473;DHT22;7322;50.872;4.386;2023-07-02T04:18:44;23.40;99.90
14473;DHT22;7322;50.872;4.386;2023-07-02T04:21:11;23.40;99.90
14473;DHT22;7322;50.872;4.386;2023-07-02T04:23:38;23.30;99.90
14473;DHT22;7322;50.872;4.386;2023-07-02T04:26:05;23.40;99.90
14473;DHT22;7322;50.872;4.386;2023-07-02T04:28:32;23.30;99.90
14473;DHT22;7322;50.872;4.386;2023-07-02T04:31:01;23.30;99.90
14473;DHT22;7322;50.872;4.386;2023-07-02T04:33:28;23.30;99.90
14473;DHT22;7322;50.872;4.386;2023-07-02T04:36:01;23.30;99.90
14473;DHT22;7322;50.872;4.386;2023-07-02T04:38:28;23.30;99.90
14473;DHT22;7322;50.872;4.386;2023-07-02T04:40:56;23.30;99.90
14473;DHT22;7322;50.872;4.386;2023-07-02T04:43:27;23.30;99.90
14473;DHT22;7322;50.872;4.386;2023-07-02T04:45:54;23.40;99.90
14473;DHT22;7322;50.872;4.386;2023-07-02T04:48:25;23.50;99.90
14473;DHT22;7322;50.872;4.386;2023-07-02T04:50:52;23.50;99.90
14473;DHT22;7322;50.872;4.386;2023-07-02T04:53:19;23.60;99.90
14473;DHT22;7322;50.872;4.386;2023-07-02T04:55:46;23.50;99.90
14473;DHT22;7322;50.872;4.386;2023-07-02T04:58:16;23.50;99.90
14473;DHT22;7322;50.872;4.386;2023-07-02T05:00:43;23.40;99.90
14473;DHT22;7322;50.872;4.386;2023-07-02T05:03:10;23.40;99.90
14473;DHT22;7322;50.872;4.386;2023-07-02T05:05:38;23.40;99.90
14473;DHT22;7322;50.872;4.386;2023-07-02T05:08:05;23.30;99.90
14473;DHT22;7322;50.872;4.386;2023-07-02T05:10:32;23.30;99.90
14473;DHT22;7322;50.872;4.386;2023-07-02T05:13:01;23.30;99.90
14473;DHT22;7322;50.872;4.386;2023-07-02T05:15:28;23.30;99.90
14473;DHT22;7322;50.872;4.386;2023-07-02T05:17:55;23.40;99.90
14473;DHT22;7322;50.872;4.386;2023-07-02T05:20:22;23.30;99.90
14473;DHT22;7322;50.872;4.386;2023-07-02T05:22:50;23.30;99.90
14473;DHT22;7322;50.872;4.386;2023-07-02T05:25:17;23.30;99.90
14473;DHT22;7322;50.872;4.386;2023-07-02T05:27:44;23.20;99.90
14473;DHT22;7322;50.872;4.386;2023-07-02T05:30:12;23.20;99.90
14473;DHT22;7322;50.872;4.386;2023-07-02T05:32:40;23.10;99.90
14473;DHT22;7322;50.872;4.386;2023-07-02T05:35:07;23.20;99.90
14473;DHT22;7322;50.872;4.386;2023-07-02T05:37:34;23.30;99.90
14473;DHT22;7322;50.872;4.386;2023-07-02T05:40:03;23.30;99.90
14473;DHT22;7322;50.872;4.386;2023-07-02T05:42:32;23.40;99.90
14473;DHT22;7322;50.872;4.386;2023-07-02T05:44:58;23.40;99.90
14473;DHT22;7322;50.872;4.386;2023-07-02T05:47:28;23.40;99.90
14473;DHT22;7322;50.872;4.386;2023-07-02T05:49:55;23.40;99.90
14473;DHT22;7322;50.872;4.386;2023-07-02T05:52:23;23.40;99.90
14473;DHT22;7322;50.872;4.386;2023-07-02T05:54:50;23.50;99.90
14473;DHT22;7322;50.872;4.386;2023-07-02T05:57:18;23.50;99.90
14473;DHT22;7322;50.872;4.386;2023-07-02T05:59:45;23.40;99.90
14473;DHT22;7322;50.872;4.386;2023-07-02T06:02:12;23.40;99.90
14473;DHT22;7322;50.872;4.386;2023-07-02T06:04:39;23.40;99.90
14473;DHT22;7322;50.872;4.386;2023-07-02T06:07:06;23.30;99.90
14473;DHT22;7322;50.872;4.386;2023-07-02T06:09:43;23.40;99.90
14473;DHT22;7322;50.872;4.386;2023-07-02T06:12:22;23.40;99.90
14473;DHT22;7322;50.872;4.386;2023-07-02T06:14:58;23.30;99.90
14473;DHT22;7322;50.872;4.386;2023-07-02T06:17:27;23.50;99.90
14473;DHT22;7322;50.872;4.386;2023-07-02T06:19:56;23.60;99.90
14473;DHT22;7322;50.872;4.386;2023-07-02T06:22:32;23.70;99.90
14473;DHT22;7322;50.872;4.386;2023-07-02T06:25:08;23.80;99.90
14473;DHT22;7322;50.872;4.386;2023-07-02T06:27:44;23.80;99.90
14473;DHT22;7322;50.872;4.386;2023-07-02T06:30:11;23.80;99.90
14473;DHT22;7322;50.872;4.386;2023-07-02T06:32:38;23.70;99.90
14473;DHT22;7322;50.872;4.386;2023-07-02T06:35:06;23.70;99.90
14473;DHT22;7322;50.872;4.386;2023-07-02T06:37:33;23.70;99.90
14473;DHT22;7322;50.872;4.386;2023-07-02T06:40:00;23.60;99.90
14473;DHT22;7322;50.872;4.386;2023-07-02T06:42:27;23.60;99.90
14473;DHT22;7322;50.872;4.386;2023-07-02T06:44:55;23.60;99.90
14473;DHT22;7322;50.872;4.386;2023-07-02T06:47:22;23.60;99.90
14473;DHT22;7322;50.872;4.386;2023-07-02T06:49:49;23.60;99.90
14473;DHT22;7322;50.872;4.386;2023-07-02T06:52:17;23.70;99.90
14473;DHT22;7322;50.872;4.386;2023-07-02T06:54:44;23.70;99.90
14473;DHT22;7322;50.872;4.386;2023-07-02T06:57:12;23.60;99.90
14473;DHT22;7322;50.872;4.386;2023-07-02T06:59:39;23.70;99.90
14473;DHT22;7322;50.872;4.386;2023-07-02T07:02:07;23.80;99.90
14473;DHT22;7322;50.872;4.386;2023-07-02T07:04:34;23.90;99.90
14473;DHT22;7322;50.872;4.386;2023-07-02T07:07:02;23.90;99.90
14473;DHT22;7322;50.872;4.386;2023-07-02T07:09:29;23.90;99.90
14473;DHT22;7322;50.872;4.386;2023-07-02T07:11:56;24.00;99.90
14473;DHT22;7322;50.872;4.386;2023-07-02T07:14:23;24.00;99.90
14473;DHT22;7322;50.872;4.386;2023-07-02T07:16:50;23.90;99.90
14473;DHT22;7322;50.872;4.386;2023-07-02T07:19:19;24.00;99.90
14473;DHT22;7322;50.872;4.386;2023-07-02T07:21:46;23.90;99.90
14473;DHT22;7322;50.872;4.386;2023-07-02T07:24:15;23.90;99.90
14473;DHT22;7322;50.872;4.386;2023-07-02T07:26:42;24.00;99.90
14473;DHT22;7322;50.872;4.386;2023-07-02T07:29:09;24.10;99.90
14473;DHT22;7322;50.872;4.386;2023-07-02T07:31:36;24.10;99.90
14473;DHT22;7322;50.872;4.386;2023-07-02T07:34:02;24.00;99.90
14473;DHT22;7322;50.872;4.386;2023-07-02T07:36:31;24.10;99.90
14473;DHT22;7322;50.872;4.386;2023-07-02T07:38:58;24.20;99.90
14473;DHT22;7322;50.872;4.386;2023-07-02T07:41:25;24.20;99.90
14473;DHT22;7322;50.872;4.386;2023-07-02T07:43:52;24.20;99.90
14473;DHT22;7322;50.872;4.386;2023-07-02T07:46:19;24.30;99.90
14473;DHT22;7322;50.872;4.386;2023-07-02T07:48:46;24.20;99.90
14473;DHT22;7322;50.872;4.386;2023-07-02T07:51:13;24.20;99.90
14473;DHT22;7322;50.872;4.386;2023-07-02T07:53:43;24.20;99.90
14473;DHT22;7322;50.872;4.386;2023-07-02T07:56:11;24.20;99.90
14473;DHT22;7322;50.872;4.386;2023-07-02T07:58:38;24.20;99.90
14473;DHT22;7322;50.872;4.386;2023-07-02T08:01:05;24.20;99.90
14473;DHT22;7322;50.872;4.386;2023-07-02T08:03:31;24.20;99.90
14473;DHT22;7322;50.872;4.386;2023-07-02T08:06:01;24.30;99.90
14473;DHT22;7322;50.872;4.386;2023-07-02T08:08:29;24.20;99.90
14473;DHT22;7322;50.872;4.386;2023-07-02T08:10:58;24.30;99.90
14473;DHT22;7322;50.872;4.386;2023-07-02T08:13:26;24.40;99.90
14473;DHT22;7322;50.872;4.386;2023-07-02T08:16:05;24.40;99.90
14473;DHT22;7322;50.872;4.386;2023-07-02T08:18:33;24.30;99.90
14473;DHT22;7322;50.872;4.386;2023-07-02T08:21:02;24.30;99.90
14473;DHT22;7322;50.872;4.386;2023-07-02T08:23:31;24.30;99.90
14473;DHT22;7322;50.872;4.386;2023-07-02T08:26:00;24.20;99.90
14473;DHT22;7322;50.872;4.386;2023-07-02T08:28:36;24.40;99.90
14473;DHT22;7322;50.872;4.386;2023-07-02T08:31:03;24.30;99.90
14473;DHT22;7322;50.872;4.386;2023-07-02T08:33:30;24.30;99.90
14473;DHT22;7322;50.872;4.386;2023-07-02T08:35:57;24.40;99.90
14473;DHT22;7322;50.872;4.386;2023-07-02T08:38:26;24.40;99.90
14473;DHT22;7322;50.872;4.386;2023-07-02T08:40:53;24.50;99.90
14473;DHT22;7322;50.872;4.386;2023-07-02T08:43:21;24.50;99.90
14473;DHT22;7322;50.872;4.386;2023-07-02T08:45:50;24.50;99.90
14473;DHT22;7322;50.872;4.386;2023-07-02T08:48:17;24.60;99.90
14473;DHT22;7322;50.872;4.386;2023-07-02T08:50:48;24.60;99.90
14473;DHT22;7322;50.872;4.386;2023-07-02T08:53:15;24.70;99.90
14473;DHT22;7322;50.872;4.386;2023-07-02T08:55:43;24.70;99.90
14473;DHT22;7322;50.872;4.386;2023-07-02T08:58:10;24.70;99.90
14473;DHT22;7322;50.872;4.386;2023-07-02T09:00:39;24.70;99.90
14473;DHT22;7322;50.872;4.386;2023-07-02T09:03:13;24.70;99.90
14473;DHT22;7322;50.872;4.386;2023-07-02T09:05:51;24.70;99.90
14473;DHT22;7322;50.872;4.386;2023-07-02T09:08:24;24.60;99.90
14473;DHT22;7322;50.872;4.386;2023-07-02T09:10:51;24.70;99.90
14473;DHT22;7322;50.872;4.386;2023-07-02T09:13:19;24.70;99.90
14473;DHT22;7322;50.872;4.386;2023-07-02T09:15:48;24.70;99.90
14473;DHT22;7322;50.872;4.386;2023-07-02T09:18:16;24.60;99.90
14473;DHT22;7322;50.872;4.386;2023-07-02T09:20:45;24.70;99.90
14473;DHT22;7322;50.872;4.386;2023-07-02T09:23:13;24.60;99.90
14473;DHT22;7322;50.872;4.386;2023-07-02T09:25:40;24.70;99.90
14473;DHT22;7322;50.872;4.386;2023-07-02T09:28:16;24.70;99.90
14473;DHT22;7322;50.872;4.386;2023-07-02T09:30:55;24.70;99.90
14473;DHT22;7322;50.872;4.386;2023-07-02T09:33:23;24.70;99.90
14473;DHT22;7322;50.872;4.386;2023-07-02T09:35:50;24.80;99.90
14473;DHT22;7322;50.872;4.386;2023-07-02T09:38:17;24.80;99.90
14473;DHT22;7322;50.872;4.386;2023-07-02T09:40:46;24.80;99.90
14473;DHT22;7322;50.872;4.386;2023-07-02T09:43:14;24.80;99.90
14473;DHT22;7322;50.872;4.386;2023-07-02T09:45:46;24.70;99.90
14473;DHT22;7322;50.872;4.386;2023-07-02T09:48:18;24.70;99.90
14473;DHT22;7322;50.872;4.386;2023-07-02T09:50:49;24.70;99.90
14473;DHT22;7322;50.872;4.386;2023-07-02T09:53:16;24.70;99.90
14473;DHT22;7322;50.872;4.386;2023-07-02T09:55:43;24.70;99.90
14473;DHT22;7322;50.872;4.386;2023-07-02T09:58:10;24.70;99.90
14473;DHT22;7322;50.872;4.386;2023-07-02T10:00:38;24.70;99.90
14473;DHT22;7322;50.872;4.386;2023-07-02T10:03:06;24.70;99.90
14473;DHT22;7322;50.872;4.386;2023-07-02T10:05:34;24.70;99.90
14473;DHT22;7322;50.872;4.386;2023-07-02T10:08:12;24.70;99.90
14473;DHT22;7322;50.872;4.386;2023-07-02T10:10:40;24.80;99.90
14473;DHT22;7322;50.872;4.386;2023-07-02T10:13:07;24.80;99.90
14473;DHT22;7322;50.872;4.386;2023-07-02T10:15:34;24.80;99.90
14473;DHT22;7322;50.872;4.386;2023-07-02T10:18:04;24.90;99.90
14473;DHT22;7322;50.872;4.386;2023-07-02T10:20:34;24.90;99.90
14473;DHT22;7322;50.872;4.386;2023-07-02T10:23:03;24.90;99.90
14473;DHT22;7322;50.872;4.386;2023-07-02T10:25:31;24.90;99.90
14473;DHT22;7322;50.872;4.386;2023-07-02T10:28:00;24.90;99.90
14473;DHT22;7322;50.872;4.386;2023-07-02T10:30:31;24.90;99.90
14473;DHT22;7322;50.872;4.386;2023-07-02T10:33:07;25.00;99.90
14473;DHT22;7322;50.872;4.386;2023-07-02T10:35:36;25.00;99.90
14473;DHT22;7322;50.872;4.386;2023-07-02T10:38:04;25.00;99.90
14473;DHT22;7322;50.872;4.386;2023-07-02T10:40:33;25.00;99.90
14473;DHT22;7322;50.872;4.386;2023-07-02T10:43:00;25.00;99.90
14473;DHT22;7322;50.872;4.386;2023-07-02T10:45:34;24.90;99.90
14473;DHT22;7322;50.872;4.386;2023-07-02T10:48:02;24.90;99.90
14473;DHT22;7322;50.872;4.386;2023-07-02T10:50:30;24.90;99.90
14473;DHT22;7322;50.872;4.386;2023-07-02T10:52:59;24.90;99.90
14473;DHT22;7322;50.872;4.386;2023-07-02T10:55:27;24.90;99.90
14473;DHT22;7322;50.872;4.386;2023-07-02T10:58:04;24.80;99.90
14473;DHT22;7322;50.872;4.386;2023-07-02T11:00:33;25.00;99.90
14473;DHT22;7322;50.872;4.386;2023-07-02T11:03:16;25.00;99.90
14473;DHT22;7322;50.872;4.386;2023-07-02T11:05:43;25.00;99.90
14473;DHT22;7322;50.872;4.386;2023-07-02T11:08:12;24.90;99.90
14473;DHT22;7322;50.872;4.386;2023-07-02T11:10:39;25.00;99.90
14473;DHT22;7322;50.872;4.386;2023-07-02T11:13:13;25.00;99.90
14473;DHT22;7322;50.872;4.386;2023-07-02T11:15:40;25.00;99.90
14473;DHT22;7322;50.872;4.386;2023-07-02T11:18:10;25.00;99.90
14473;DHT22;7322;50.872;4.386;2023-07-02T11:20:38;25.00;99.90
14473;DHT22;7322;50.872;4.386;2023-07-02T11:23:18;25.00;99.90
14473;DHT22;7322;50.872;4.386;2023-07-02T11:25:56;25.10;99.90
14473;DHT22;7322;50.872;4.386;2023-07-02T11:28:23;25.10;99.90
14473;DHT22;7322;50.872;4.386;2023-07-02T11:30:51;25.00;99.90
14473;DHT22;7322;50.872;4.386;2023-07-02T11:33:18;25.00;99.90
14473;DHT22;7322;50.872;4.386;2023-07-02T11:35:45;25.00;99.90
14473;DHT22;7322;50.872;4.386;2023-07-02T11:38:12;25.00;99.90
14473;DHT22;7322;50.872;4.386;2023-07-02T11:40:41;25.00;99.90
14473;DHT22;7322;50.872;4.386;2023-07-02T11:43:08;25.00;99.90
14473;DHT22;7322;50.872;4.386;2023-07-02T11:45:35;25.10;99.90
14473;DHT22;7322;50.872;4.386;2023-07-02T11:48:02;25.10;99.90
14473;DHT22;7322;50.872;4.386;2023-07-02T11:50:29;25.10;99.90
14473;DHT22;7322;50.872;4.386;2023-07-02T11:52:57;25.20;99.90
14473;DHT22;7322;50.872;4.386;2023-07-02T11:55:29;25.20;99.90
14473;DHT22;7322;50.872;4.386;2023-07-02T11:57:59;25.10;99.90
14473;DHT22;7322;50.872;4.386;2023-07-02T12:00:26;25.10;99.90
14473;DHT22;7322;50.872;4.386;2023-07-02T12:02:53;25.20;99.90
14473;DHT22;7322;50.872;4.386;2023-07-02T12:05:20;25.10;99.90
14473;DHT22;7322;50.872;4.386;2023-07-02T12:07:47;25.20;99.90
14473;DHT22;7322;50.872;4.386;2023-07-02T12:10:14;25.10;99.90
14473;DHT22;7322;50.872;4.386;2023-07-02T12:12:42;25.10;99.90
14473;DHT22;7322;50.872;4.386;2023-07-02T12:15:12;25.20;99.90
14473;DHT22;7322;50.872;4.386;2023-07-02T12:17:46;25.20;99.90
14473;DHT22;7322;50.872;4.386;2023-07-02T12:20:19;25.20;99.90
14473;DHT22;7322;50.872;4.386;2023-07-02T12:22:52;25.20;99.90
14473;DHT22;7322;50.872;4.386;2023-07-02T12:25:28;25.20;99.90
14473;DHT22;7322;50.872;4.386;2023-07-02T12:27:55;25.20;99.90
14473;DHT22;7322;50.872;4.386;2023-07-02T12:30:23;25.20;99.90
14473;DHT22;7322;50.872;4.386;2023-07-02T12:33:09;25.30;99.90
14473;DHT22;7322;50.872;4.386;2023-07-02T12:35:36;25.30;99.90
14473;DHT22;7322;50.872;4.386;2023-07-02T12:38:16;25.30;99.90
14473;DHT22;7322;50.872;4.386;2023-07-02T12:41:20;25.30;99.90
14473;DHT22;7322;50.872;4.386;2023-07-02T12:43:47;25.30;99.90
14473;DHT22;7322;50.872;4.386;2023-07-02T12:46:16;25.30;99.90
14473;DHT22;7322;50.872;4.386;2023-07-02T12:48:43;25.30;99.90
14473;DHT22;7322;50.872;4.386;2023-07-02T12:51:11;25.30;99.90
14473;DHT22;7322;50.872;4.386;2023-07-02T12:53:38;25.30;99.90
14473;DHT22;7322;50.872;4.386;2023-07-02T12:56:05;25.30;99.90
14473;DHT22;7322;50.872;4.386;2023-07-02T12:58:32;25.40;99.90
14473;DHT22;7322;50.872;4.386;2023-07-02T13:00:59;25.40;99.90
14473;DHT22;7322;50.872;4.386;2023-07-02T13:03:30;25.40;99.90
14473;DHT22;7322;50.872;4.386;2023-07-02T13:05:57;25.30;99.90
14473;DHT22;7322;50.872;4.386;2023-07-02T13:08:24;25.30;99.90
14473;DHT22;7322;50.872;4.386;2023-07-02T13:10:51;25.40;99.90
14473;DHT22;7322;50.872;4.386;2023-07-02T13:13:18;25.50;99.90
14473;DHT22;7322;50.872;4.386;2023-07-02T13:15:46;25.50;99.90
14473;DHT22;7322;50.872;4.386;2023-07-02T13:18:13;25.50;99.90
14473;DHT22;7322;50.872;4.386;2023-07-02T13:20:42;25.50;99.90
14473;DHT22;7322;50.872;4.386;2023-07-02T13:23:09;25.50;99.90
14473;DHT22;7322;50.872;4.386;2023-07-02T13:25:36;25.60;99.90
14473;DHT22;7322;50.872;4.386;2023-07-02T13:28:03;25.60;99.90
14473;DHT22;7322;50.872;4.386;2023-07-02T13:30:30;25.60;99.90
14473;DHT22;7322;50.872;4.386;2023-07-02T13:32:57;25.60;99.90
14473;DHT22;7322;50.872;4.386;2023-07-02T13:35:24;25.60;99.90
14473;DHT22;7322;50.872;4.386;2023-07-02T13:37:53;25.70;99.90
14473;DHT22;7322;50.872;4.386;2023-07-02T13:40:20;25.70;99.90
14473;DHT22;7322;50.872;4.386;2023-07-02T13:42:47;25.70;99.90
14473;DHT22;7322;50.872;4.386;2023-07-02T13:45:14;25.70;99.90
14473;DHT22;7322;50.872;4.386;2023-07-02T13:47:41;25.70;99.90
14473;DHT22;7322;50.872;4.386;2023-07-02T13:50:08;25.70;99.90
14473;DHT22;7322;50.872;4.386;2023-07-02T13:52:36;25.70;99.90
14473;DHT22;7322;50.872;4.386;2023-07-02T13:55:05;25.70;99.90
14473;DHT22;7322;50.872;4.386;2023-07-02T13:57:32;25.80;99.90
14473;DHT22;7322;50.872;4.386;2023-07-02T14:00:01;25.70;99.90
14473;DHT22;7322;50.872;4.386;2023-07-02T14:02:30;25.70;99.90
14473;DHT22;7322;50.872;4.386;2023-07-02T14:04:58;25.70;99.90
14473;DHT22;7322;50.872;4.386;2023-07-02T14:07:26;25.80;99.90
14473;DHT22;7322;50.872;4.386;2023-07-02T14:09:53;25.80;99.90
14473;DHT22;7322;50.872;4.386;2023-07-02T14:12:21;25.70;99.90
14473;DHT22;7322;50.872;4.386;2023-07-02T14:14:48;25.80;99.90
14473;DHT22;7322;50.872;4.386;2023-07-02T14:17:22;25.80;99.90
14473;DHT22;7322;50.872;4.386;2023-07-02T14:19:49;25.90;99.90
14473;DHT22;7322;50.872;4.386;2023-07-02T14:22:16;25.90;99.90
14473;DHT22;7322;50.872;4.386;2023-07-02T14:24:43;25.90;99.90
14473;DHT22;7322;50.872;4.386;2023-07-02T14:27:10;26.00;99.90
14473;DHT22;7322;50.872;4.386;2023-07-02T14:29:37;26.00;99.90
14473;DHT22;7322;50.872;4.386;2023-07-02T14:32:05;26.00;99.90
14473;DHT22;7322;50.872;4.386;2023-07-02T14:34:33;26.00;99.90
14473;DHT22;7322;50.872;4.386;2023-07-02T14:37:02;26.00;99.90
14473;DHT22;7322;50.872;4.386;2023-07-02T14:39:29;26.00;99.90
14473;DHT22;7322;50.872;4.386;2023-07-02T14:41:56;26.00;99.90
14473;DHT22;7322;50.872;4.386;2023-07-02T14:44:23;26.10;99.90
14473;DHT22;7322;50.872;4.386;2023-07-02T14:46:50;26.10;99.90
14473;DHT22;7322;50.872;4.386;2023-07-02T14:49:17;26.10;99.90
14473;DHT22;7322;50.872;4.386;2023-07-02T14:51:46;26.10;99.90
14473;DHT22;7322;50.872;4.386;2023-07-02T14:54:12;26.10;99.90
14473;DHT22;7322;50.872;4.386;2023-07-02T14:56:39;26.10;99.90
14473;DHT22;7322;50.872;4.386;2023-07-02T14:59:06;26.10;99.90
14473;DHT22;7322;50.872;4.386;2023-07-02T15:01:34;26.10;99.90
14473;DHT22;7322;50.872;4.386;2023-07-02T15:04:01;26.10;99.90
14473;DHT22;7322;50.872;4.386;2023-07-02T15:06:28;26.20;99.90
14473;DHT22;7322;50.872;4.386;2023-07-02T15:08:57;26.20;99.90
14473;DHT22;7322;50.872;4.386;2023-07-02T15:11:24;26.10;99.90
14473;DHT22;7322;50.872;4.386;2023-07-02T15:13:51;26.20;99.90
14473;DHT22;7322;50.872;4.386;2023-07-02T15:16:18;26.20;99.80
14473;DHT22;7322;50.872;4.386;2023-07-02T15:18:46;26.20;99.50
14473;DHT22;7322;50.872;4.386;2023-07-02T15:21:13;26.10;99.10
14473;DHT22;7322;50.872;4.386;2023-07-02T15:23:41;26.20;98.90
14473;DHT22;7322;50.872;4.386;2023-07-02T15:26:09;26.20;99.30
14473;DHT22;7322;50.872;4.386;2023-07-02T15:28:36;26.20;99.40
14473;DHT22;7322;50.872;4.386;2023-07-02T15:31:06;26.20;99.00
14473;DHT22;7322;50.872;4.386;2023-07-02T15:33:33;26.20;99.20
14473;DHT22;7322;50.872;4.386;2023-07-02T15:36:01;26.20;99.60
14473;DHT22;7322;50.872;4.386;2023-07-02T15:38:35;26.20;99.40
14473;DHT22;7322;50.872;4.386;2023-07-02T15:41:10;26.20;99.20
14473;DHT22;7322;50.872;4.386;2023-07-02T15:43:39;26.20;99.00
14473;DHT22;7322;50.872;4.386;2023-07-02T15:46:10;26.20;99.00
14473;DHT22;7322;50.872;4.386;2023-07-02T15:48:38;26.20;98.90
14473;DHT22;7322;50.872;4.386;2023-07-02T15:51:08;26.20;99.20